Time;durP1;ratioP1;P1;durP2;ratioP2;P2;SDS_P1;SDS_P2;PMS_P1;PMS_P2;Temp;Humidity;BMP_temperature;BMP_pressure;BME280_temperature;BME280_humidity;BME280_pressure;Samples;Min_cycle;Max_cycle;Signal;HPM_P1;HPM_P2
2022/08/27 00:03:13;;;;;;;11.93;5.40;;;;;;;21.74;52.49;99752.19;10341652;28;20495;-61
2022/08/27 00:08:14;;;;;;;10.25;4.78;;;;;;;21.76;52.37;99742.19;10343308;28;20058;-61
2022/08/27 00:13:17;;;;;;;10.05;4.90;;;;;;;21.78;52.45;99729.56;10342688;28;20049;-61
2022/08/27 00:18:19;;;;;;;12.07;5.80;;;;;;;21.76;52.26;99726.22;10342583;28;20050;-61
2022/08/27 00:23:23;;;;;;;9.93;5.13;;;;;;;21.71;52.60;99733.06;10342731;28;20137;-61
2022/08/27 00:28:26;;;;;;;10.60;5.97;;;;;;;21.68;52.40;99736.88;10343717;28;20049;-61
2022/08/27 00:33:29;;;;;;;12.30;6.18;;;;;;;21.54;53.14;99734.06;10341572;28;20134;-61
2022/08/27 00:38:31;;;;;;;11.25;6.60;;;;;;;21.51;53.17;99737.06;10341478;28;20096;-61
2022/08/27 00:44:02;;;;;;;13.65;6.63;;;;;;;21.50;53.33;99728.25;10343532;28;20046;-61
2022/08/27 00:49:08;;;;;;;11.25;7.28;;;;;;;21.59;53.28;99732.56;10342429;28;20050;-61
2022/08/27 00:54:10;;;;;;;14.23;7.35;;;;;;;21.47;53.32;99733.91;10340239;28;20054;-60
2022/08/27 00:59:22;;;;;;;17.30;7.60;;;;;;;21.42;53.51;99730.91;10342497;28;20391;-61
2022/08/27 01:04:23;;;;;;;15.35;7.78;;;;;;;21.40;53.59;99727.56;10342347;28;20060;-61
2022/08/27 01:09:26;;;;;;;16.70;8.98;;;;;;;21.36;53.62;99726.25;10338833;28;20046;-61
2022/08/27 01:14:29;;;;;;;16.40;9.38;;;;;;;21.32;54.07;99721.41;10339675;28;20058;-60
2022/08/27 01:19:36;;;;;;;12.50;8.80;;;;;;;21.32;53.88;99718.75;10341002;28;20074;-60
2022/08/27 01:24:45;;;;;;;13.95;8.00;;;;;;;21.34;53.90;99722.06;10342651;28;20060;-60
2022/08/27 01:29:49;;;;;;;18.77;9.55;;;;;;;21.25;54.02;99723.03;10341881;28;20136;-60
2022/08/27 01:34:51;;;;;;;15.13;8.50;;;;;;;21.24;54.01;99721.38;10343683;28;20425;-60
2022/08/27 01:39:55;;;;;;;14.43;9.95;;;;;;;21.08;54.52;99714.22;10345820;28;20050;-60
2022/08/27 01:45:04;;;;;;;14.95;10.98;;;;;;;20.77;55.21;99713.13;10349277;28;20049;-60
2022/08/27 01:50:16;;;;;;;17.45;9.50;;;;;;;20.78;55.24;99714.81;10349284;28;20208;-61
2022/08/27 01:55:20;;;;;;;19.75;12.18;;;;;;;20.62;55.57;99709.44;10349647;28;20058;-60
2022/08/27 02:00:28;;;;;;;16.65;10.38;;;;;;;20.64;55.80;99705.59;10348808;28;20049;-60
2022/08/27 02:05:30;;;;;;;23.20;11.43;;;;;;;20.63;55.46;99711.09;10356300;28;20054;-60
2022/08/27 02:10:46;;;;;;;18.17;12.52;;;;;;;20.48;56.19;99710.03;10355980;28;20045;-60
2022/08/27 02:15:48;;;;;;;20.50;12.45;;;;;;;20.42;56.39;99698.19;10356927;28;20045;-60
2022/08/27 02:20:50;;;;;;;20.58;13.23;;;;;;;20.27;56.32;99697.94;10356771;28;20084;-60
2022/08/27 02:25:52;;;;;;;14.88;10.80;;;;;;;20.21;56.31;99698.59;10356487;28;20060;-60
2022/08/27 02:30:54;;;;;;;21.63;10.80;;;;;;;20.22;56.64;99691.47;10353093;28;20050;-60
2022/08/27 02:35:56;;;;;;;13.75;9.77;;;;;;;20.13;56.74;99690.59;10356564;28;20136;-60
2022/08/27 02:40:57;;;;;;;15.13;9.43;;;;;;;20.07;57.11;99701.84;10355740;28;20057;-60
2022/08/27 02:46:00;;;;;;;19.90;13.43;;;;;;;20.04;57.12;99702.16;10353716;28;20056;-60
2022/08/27 02:51:04;;;;;;;18.67;10.93;;;;;;;19.96;57.14;99702.13;10353970;28;20504;-60
2022/08/27 02:56:06;;;;;;;16.55;11.15;;;;;;;20.02;57.12;99705.97;10355335;28;20054;-60
2022/08/27 03:01:07;;;;;;;20.98;11.73;;;;;;;19.96;57.49;99701.28;10353315;28;20447;-60
2022/08/27 03:06:14;;;;;;;19.27;12.73;;;;;;;19.88;57.88;99710.03;10349806;28;20054;-60
2022/08/27 03:11:16;;;;;;;20.40;12.57;;;;;;;19.90;58.13;99699.25;10346058;28;20157;-60
2022/08/27 03:16:18;;;;;;;18.30;11.02;;;;;;;19.84;57.87;99699.88;10346641;28;20046;-60
2022/08/27 03:21:23;;;;;;;15.52;10.95;;;;;;;19.91;57.87;99698.28;10347076;28;20144;-60
2022/08/27 03:26:24;;;;;;;17.65;11.43;;;;;;;19.95;57.69;99707.59;10348016;28;20056;-60
2022/08/27 03:31:28;;;;;;;18.55;10.98;;;;;;;20.06;57.76;99713.47;10346777;28;20149;-60
2022/08/27 03:36:30;;;;;;;16.70;10.07;;;;;;;20.16;57.39;99718.66;10346116;28;20530;-60
2022/08/27 03:41:32;;;;;;;18.40;10.88;;;;;;;20.29;57.18;99716.41;10347408;28;20050;-60
2022/08/27 03:46:54;;;;;;;17.48;10.18;;;;;;;20.32;57.07;99712.56;10345657;28;20053;-60
2022/08/27 03:51:55;;;;;;;17.40;9.80;;;;;;;20.36;56.85;99709.44;10344284;28;20064;-60
2022/08/27 03:56:57;;;;;;;17.58;10.02;;;;;;;20.38;56.67;99714.63;10344827;28;20058;-60
2022/08/27 04:02:00;;;;;;;15.57;8.43;;;;;;;20.42;56.36;99708.81;10345585;28;20247;-60
2022/08/27 04:07:02;;;;;;;14.30;8.95;;;;;;;20.50;56.36;99710.69;10345842;28;20966;-60
2022/08/27 04:12:04;;;;;;;15.20;9.43;;;;;;;20.44;56.60;99721.97;10345531;28;20048;-60
2022/08/27 04:17:06;;;;;;;16.83;8.88;;;;;;;20.37;56.69;99711.13;10342773;28;20045;-60
2022/08/27 04:22:08;;;;;;;11.93;8.13;;;;;;;20.31;56.87;99711.75;10345473;28;20053;-60
2022/08/27 04:27:10;;;;;;;15.02;8.07;;;;;;;20.44;56.65;99717.47;10344982;28;20093;-60
2022/08/27 04:32:12;;;;;;;13.32;7.88;;;;;;;20.51;56.20;99715.84;10345427;28;20042;-60
2022/08/27 04:37:13;;;;;;;13.98;7.85;;;;;;;20.61;55.95;99727.19;10344149;28;20047;-60
2022/08/27 04:42:22;;;;;;;18.35;7.70;;;;;;;20.64;56.19;99728.72;10344738;28;20184;-60
2022/08/27 04:47:23;;;;;;;10.82;7.10;;;;;;;20.61;56.24;99737.00;10342250;28;20053;-60
2022/08/27 04:52:25;;;;;;;12.85;7.18;;;;;;;20.61;56.07;99740.50;10342523;28;20053;-60
2022/08/27 04:57:27;;;;;;;11.05;6.95;;;;;;;20.61;56.11;99737.00;10343073;28;20185;-60
2022/08/27 05:02:28;;;;;;;9.68;6.80;;;;;;;20.72;55.92;99742.84;10344458;28;20572;-61
2022/08/27 05:07:30;;;;;;;12.80;7.15;;;;;;;20.73;55.77;99749.00;10343912;28;20058;-61
2022/08/27 05:12:32;;;;;;;12.43;6.97;;;;;;;20.74;55.57;99748.81;10351193;28;20052;-60
2022/08/27 05:17:33;;;;;;;16.33;7.28;;;;;;;20.74;56.11;99753.34;10350985;28;20054;-60
2022/08/27 05:22:35;;;;;;;14.25;7.55;;;;;;;20.80;55.76;99750.88;10351491;28;20050;-60
2022/08/27 05:27:36;;;;;;;11.65;8.27;;;;;;;20.82;55.43;99748.88;10352435;28;20058;-61
2022/08/27 05:32:38;;;;;;;18.08;9.18;;;;;;;20.80;55.50;99745.56;10352464;28;20049;-60
2022/08/27 05:37:40;;;;;;;17.42;8.88;;;;;;;20.85;55.77;99740.56;10352557;28;20157;-60
2022/08/27 05:42:42;;;;;;;14.27;7.90;;;;;;;20.87;55.41;99746.56;10351152;28;20052;-60
2022/08/27 05:47:50;;;;;;;14.55;8.40;;;;;;;20.86;55.63;99744.91;10349940;28;20061;-60
2022/08/27 05:52:52;;;;;;;14.05;8.80;;;;;;;20.73;55.94;99751.66;10350204;28;20050;-60
2022/08/27 05:57:54;;;;;;;13.18;8.50;;;;;;;20.76;56.10;99752.19;10351364;28;20510;-60
2022/08/27 06:02:55;;;;;;;12.70;8.05;;;;;;;20.78;55.79;99752.84;10351413;28;20054;-60
2022/08/27 06:07:57;;;;;;;12.35;8.45;;;;;;;20.80;56.09;99747.38;10350666;28;20917;-60
2022/08/27 06:12:59;;;;;;;14.48;10.18;;;;;;;20.67;56.09;99758.44;10350226;28;20046;-60
2022/08/27 06:18:00;;;;;;;13.43;8.95;;;;;;;20.64;56.04;99749.97;10350312;28;20141;-60
2022/08/27 06:23:02;;;;;;;14.75;9.80;;;;;;;20.76;56.18;99749.53;10350144;28;20054;-60
2022/08/27 06:28:04;;;;;;;15.90;8.70;;;;;;;20.75;56.17;99752.31;10350497;28;20139;-60
2022/08/27 06:33:07;;;;;;;15.90;8.60;;;;;;;20.71;56.00;99746.50;10350110;28;20089;-60
2022/08/27 06:38:09;;;;;;;11.15;8.30;;;;;;;20.71;56.01;99754.47;10350344;28;20053;-60
2022/08/27 06:43:11;;;;;;;16.67;9.32;;;;;;;20.69;56.46;99753.81;10347074;28;20077;-60
2022/08/27 06:48:13;;;;;;;16.00;7.85;;;;;;;20.79;56.07;99762.47;10347765;28;20053;-60
2022/08/27 06:53:15;;;;;;;15.48;8.48;;;;;;;20.78;56.04;99758.19;10349174;28;20085;-60
2022/08/27 06:58:18;;;;;;;12.07;7.90;;;;;;;20.92;55.95;99759.38;10349233;28;20061;-60
2022/08/27 07:03:20;;;;;;;14.38;8.13;;;;;;;21.01;55.35;99759.22;10348836;28;20520;-60
2022/08/27 07:08:21;;;;;;;12.18;7.03;;;;;;;21.07;55.24;99763.06;10349204;28;20061;-60
2022/08/27 07:13:23;;;;;;;11.70;7.28;;;;;;;21.24;55.18;99758.59;10347002;28;20049;-60
2022/08/27 07:18:25;;;;;;;10.70;7.10;;;;;;;21.38;54.54;99756.16;10348785;28;20046;-60
2022/08/27 07:23:29;;;;;;;10.27;5.97;;;;;;;21.50;53.97;99751.34;10348363;28;20124;-60
2022/08/27 07:28:31;;;;;;;10.32;5.63;;;;;;;21.51;53.95;99756.53;10348121;28;20096;-59
2022/08/27 07:33:32;;;;;;;8.45;5.40;;;;;;;21.63;53.50;99755.19;10346664;28;20049;-58
2022/08/27 07:38:35;;;;;;;8.25;5.00;;;;;;;21.73;53.37;99766.50;10347586;28;20410;-59
2022/08/27 07:48:58;;;;;;;8.10;5.10;;;;;;;22.25;52.10;99768.81;10346875;28;20064;-59
2022/08/27 07:53:59;;;;;;;9.57;5.30;;;;;;;22.30;52.04;99769.97;10345844;28;20461;-59
2022/08/27 07:59:01;;;;;;;9.15;5.20;;;;;;;22.39;51.81;99768.13;10346507;28;20058;-58
2022/08/27 08:04:03;;;;;;;11.10;5.70;;;;;;;22.80;50.73;99766.97;10344984;28;20163;-59
2022/08/27 08:09:05;;;;;;;8.68;5.70;;;;;;;23.22;49.76;99761.25;10346560;28;20054;-58
2022/08/27 08:14:11;;;;;;;9.07;5.15;;;;;;;23.46;49.33;99761.13;10342804;28;20061;-58
2022/08/27 08:19:13;;;;;;;7.93;5.45;;;;;;;23.93;48.09;99771.59;10343038;28;20157;-59
2022/08/27 08:24:16;;;;;;;7.82;5.10;;;;;;;24.13;47.49;99768.25;10346376;28;20050;-59
2022/08/27 08:29:18;;;;;;;8.13;4.15;;;;;;;24.32;47.05;99771.41;10344440;28;20064;-59
2022/08/27 08:34:19;;;;;;;5.20;3.67;;;;;;;24.70;45.97;99772.94;10340365;28;20406;-59
2022/08/27 08:39:23;;;;;;;4.22;2.75;;;;;;;25.01;45.07;99771.75;10338075;28;20950;-59
2022/08/27 08:44:48;;;;;;;5.30;3.67;;;;;;;25.30;44.01;99770.84;10340379;28;20141;-59
2022/08/27 08:49:49;;;;;;;6.13;3.05;;;;;;;25.30;44.14;99770.84;10331989;28;20490;-59
2022/08/27 08:54:58;;;;;;;7.20;3.75;;;;;;;25.39;43.50;99769.72;10336292;28;20073;-59
2022/08/27 09:00:06;;;;;;;7.32;3.50;;;;;;;25.42;43.32;99774.72;10339313;28;20050;-59
2022/08/27 09:05:08;;;;;;;7.10;3.50;;;;;;;25.13;44.01;99781.97;10341570;28;21054;-59
2022/08/27 09:10:32;;;;;;;5.68;3.40;;;;;;;25.02;44.01;99786.78;10343196;28;20050;-59
2022/08/27 09:15:35;;;;;;;9.07;3.60;;;;;;;25.18;44.03;99782.22;10344265;28;20061;-59
2022/08/27 09:20:39;;;;;;;4.20;2.55;;;;;;;25.12;43.95;99770.44;10341662;28;20053;-59
2022/08/27 09:25:43;;;;;;;5.30;3.10;;;;;;;25.30;43.30;99776.19;10342051;28;20140;-59
2022/08/27 09:30:45;;;;;;;5.28;3.40;;;;;;;25.41;43.28;99780.22;10340863;28;20049;-59
2022/08/27 09:35:47;;;;;;;7.97;3.90;;;;;;;25.62;42.80;99785.59;10341085;28;20057;-59
2022/08/27 09:40:51;;;;;;;6.00;3.97;;;;;;;25.36;43.01;99786.19;10340526;28;20058;-59
2022/08/27 09:46:18;;;;;;;5.60;3.33;;;;;;;25.57;42.32;99782.69;10342943;28;20450;-59
2022/08/27 09:51:24;;;;;;;4.90;3.70;;;;;;;25.95;41.87;99789.41;10342151;28;20057;-59
2022/08/27 09:56:35;;;;;;;4.55;2.95;;;;;;;26.07;41.66;99781.69;10343912;28;20402;-59
2022/08/27 10:02:10;;;;;;;6.25;3.35;;;;;;;26.03;41.42;99785.78;10347869;28;20052;-59
2022/08/27 10:07:41;;;;;;;7.35;3.15;;;;;;;26.55;40.39;99784.34;10348666;28;20049;-59
2022/08/27 10:13:04;;;;;;;5.10;3.10;;;;;;;26.70;40.05;99778.84;10347457;28;20691;-59
2022/08/27 10:18:18;;;;;;;5.25;3.00;;;;;;;26.78;39.94;99775.16;10345719;28;20058;-59
2022/08/27 10:23:29;;;;;;;5.78;3.13;;;;;;;26.53;40.16;99777.47;10344553;28;20054;-59
2022/08/27 10:28:53;;;;;;;5.00;2.17;;;;;;;26.58;40.12;99781.25;10344962;28;20050;-60
2022/08/27 10:34:13;;;;;;;4.57;2.92;;;;;;;27.08;39.48;99785.41;10344459;28;20057;-59
2022/08/27 10:39:39;;;;;;;4.70;2.60;;;;;;;27.05;39.02;99777.75;10344461;28;20049;-59
2022/08/27 10:44:47;;;;;;;4.82;2.80;;;;;;;26.98;39.14;99771.53;10345658;28;20056;-59
2022/08/27 10:50:02;;;;;;;3.33;2.20;;;;;;;27.06;38.86;99784.78;10346866;28;20054;-59
2022/08/27 10:55:13;;;;;;;4.25;2.35;;;;;;;26.92;39.41;99777.69;10345717;28;20142;-60
2022/08/27 11:00:21;;;;;;;4.47;2.38;;;;;;;26.94;39.18;99775.66;10343313;28;20833;-60
2022/08/27 11:05:30;;;;;;;4.30;2.20;;;;;;;27.31;38.51;99777.03;10347117;28;20417;-60
2022/08/27 11:10:42;;;;;;;4.20;2.20;;;;;;;27.70;37.92;99781.66;10345497;28;20060;-59
2022/08/27 11:15:48;;;;;;;3.40;1.80;;;;;;;27.12;38.95;99783.97;10345772;28;20060;-59
2022/08/27 11:20:58;;;;;;;5.35;1.92;;;;;;;26.50;40.04;99775.19;10328844;28;20053;-60
2022/08/27 11:26:03;;;;;;;4.40;2.15;;;;;;;26.27;40.37;99778.16;10343810;28;20054;-59
2022/08/27 11:31:18;;;;;;;4.80;1.83;;;;;;;26.20;40.41;99777.25;10345703;28;20492;-59
2022/08/27 11:36:57;;;;;;;2.95;2.00;;;;;;;26.19;40.44;99774.78;10346159;28;20204;-59
2022/08/27 11:42:04;;;;;;;3.13;1.80;;;;;;;26.83;39.35;99773.56;10343618;28;20054;-59
2022/08/27 11:47:13;;;;;;;10.80;2.13;;;;;;;27.10;38.76;99775.28;10345787;28;20048;-59
2022/08/27 11:52:36;;;;;;;4.82;1.88;;;;;;;27.41;38.13;99766.72;10348177;28;20092;-59
2022/08/27 11:57:39;;;;;;;4.15;1.80;;;;;;;27.51;38.15;99761.78;10345793;28;20054;-60
2022/08/27 12:02:40;;;;;;;4.68;1.80;;;;;;;27.14;38.65;99771.19;10347026;28;20161;-59
2022/08/27 12:07:49;;;;;;;4.13;2.10;;;;;;;26.71;39.17;99764.38;10343297;28;20498;-60
2022/08/27 12:13:21;;;;;;;2.28;1.70;;;;;;;26.72;39.39;99766.06;10346076;28;20409;-59
2022/08/27 12:18:43;;;;;;;3.40;1.90;;;;;;;27.10;38.92;99769.09;10346371;28;20054;-59
2022/08/27 12:24:11;;;;;;;2.85;1.70;;;;;;;27.38;38.25;99762.59;10345188;28;20053;-59
2022/08/27 12:29:45;;;;;;;3.05;1.80;;;;;;;27.11;38.49;99758.16;10344020;28;20815;-59
2022/08/27 12:34:57;;;;;;;3.13;1.80;;;;;;;26.90;38.85;99762.81;10345118;28;20050;-60
2022/08/27 12:40:07;;;;;;;3.17;1.75;;;;;;;26.50;39.58;99756.41;10345767;28;20107;-59
2022/08/27 12:45:18;;;;;;;3.78;1.73;;;;;;;26.28;40.01;99757.53;10346211;28;20089;-59
2022/08/27 12:50:25;;;;;;;2.72;1.67;;;;;;;26.60;39.29;99746.19;10345672;28;21040;-59
2022/08/27 12:56:01;;;;;;;3.97;1.90;;;;;;;26.76;38.97;99751.22;10342037;28;20054;-59
2022/08/27 13:01:27;;;;;;;2.53;1.60;;;;;;;26.99;38.42;99745.53;10344957;28;20079;-60
2022/08/27 13:06:33;;;;;;;3.10;1.83;;;;;;;27.00;38.37;99737.25;10342558;28;20115;-59
2022/08/27 13:11:45;;;;;;;2.25;1.50;;;;;;;27.04;38.21;99751.09;10343555;28;20042;-59
2022/08/27 13:16:58;;;;;;;2.20;1.40;;;;;;;27.08;38.38;99747.81;10339937;28;20046;-59
2022/08/27 13:22:03;;;;;;;3.33;1.70;;;;;;;27.02;38.40;99745.94;10336279;28;20058;-59
2022/08/27 13:27:05;;;;;;;2.80;1.50;;;;;;;26.87;38.49;99742.59;10337007;28;20054;-59
2022/08/27 13:32:08;;;;;;;3.55;1.73;;;;;;;26.99;38.44;99745.53;10342705;28;20049;-59
2022/08/27 13:37:26;;;;;;;2.80;1.60;;;;;;;26.94;38.30;99746.13;10348193;28;20086;-60
2022/08/27 13:42:28;;;;;;;3.70;1.73;;;;;;;26.48;39.09;99742.38;10350901;28;20046;-59
2022/08/27 13:47:44;;;;;;;6.45;1.63;;;;;;;26.25;39.51;99742.66;10350781;28;20062;-60
2022/08/27 13:58:18;;;;;;;2.25;1.50;;;;;;;26.03;39.85;99733.03;10348821;28;20617;-59
2022/08/27 14:03:32;;;;;;;2.13;1.40;;;;;;;25.88;40.28;99734.94;10345425;28;20567;-59
2022/08/27 14:08:35;;;;;;;3.60;1.35;;;;;;;25.87;40.36;99733.28;10345850;28;20099;-59
2022/08/27 14:13:39;;;;;;;3.88;1.33;;;;;;;25.93;40.28;99724.47;10349110;28;20042;-59
2022/08/27 14:19:05;;;;;;;2.35;1.40;;;;;;;25.93;40.28;99735.19;10348053;28;20056;-59
2022/08/27 14:24:07;;;;;;;2.78;1.35;;;;;;;25.90;40.51;99739.09;10347184;28;20050;-59
2022/08/27 14:29:09;;;;;;;5.53;1.50;;;;;;;26.03;40.37;99740.22;10342521;28;20446;-59
2022/08/27 14:34:13;;;;;;;4.18;1.30;;;;;;;25.85;40.59;99746.06;10348302;28;20129;-59
2022/08/27 14:39:15;;;;;;;2.50;1.35;;;;;;;26.01;40.14;99740.44;10345886;28;20049;-59
2022/08/27 14:44:17;;;;;;;2.22;1.38;;;;;;;26.29;39.77;99738.56;10347493;28;20057;-59
2022/08/27 14:49:28;;;;;;;5.63;1.60;;;;;;;26.49;39.20;99738.66;10347921;28;20083;-60
2022/08/27 14:54:30;;;;;;;3.80;1.50;;;;;;;26.32;39.33;99745.38;10348004;28;20850;-59
2022/08/27 14:59:35;;;;;;;2.70;1.50;;;;;;;26.37;39.16;99740.25;10341335;28;20522;-59
2022/08/27 15:04:37;;;;;;;2.88;1.50;;;;;;;26.46;39.13;99747.13;10347556;28;20042;-60
2022/08/27 15:09:39;;;;;;;2.83;1.50;;;;;;;26.53;38.97;99745.28;10346218;28;20060;-59
2022/08/27 15:14:44;;;;;;;2.53;1.40;;;;;;;26.45;39.01;99746.28;10344112;28;20052;-59
2022/08/27 15:19:46;;;;;;;2.70;1.40;;;;;;;26.48;38.98;99751.25;10345561;28;21008;-59
2022/08/27 15:24:52;;;;;;;2.90;1.70;;;;;;;26.42;38.63;99751.22;10346192;28;20046;-60
2022/08/27 15:29:54;;;;;;;5.60;1.73;;;;;;;26.32;39.14;99748.06;10345359;28;20592;-59
2022/08/27 15:34:57;;;;;;;3.78;1.63;;;;;;;26.36;38.92;99750.16;10345972;28;20088;-59
2022/08/27 15:39:59;;;;;;;4.95;2.00;;;;;;;26.23;39.04;99749.22;10343579;28;20205;-59
2022/08/27 15:45:02;;;;;;;4.03;1.80;;;;;;;26.13;39.19;99743.41;10346057;28;20049;-59
2022/08/27 15:50:05;;;;;;;4.95;1.70;;;;;;;26.03;39.27;99742.91;10344530;28;20505;-60
2022/08/27 15:55:21;;;;;;;4.40;2.10;;;;;;;26.12;38.74;99747.13;10338748;28;20053;-59
2022/08/27 16:00:23;;;;;;;5.93;2.20;;;;;;;25.90;39.36;99749.81;10343590;28;20056;-59
2022/08/27 16:05:29;;;;;;;6.45;2.30;;;;;;;25.40;39.96;99758.00;10344384;28;20050;-59
2022/08/27 16:10:30;;;;;;;10.80;2.13;;;;;;;25.24;40.31;99750.19;10344440;28;20068;-59
2022/08/27 16:15:34;;;;;;;5.05;2.25;;;;;;;24.99;40.45;99757.75;10344522;28;20053;-59
2022/08/27 16:20:36;;;;;;;6.30;2.10;;;;;;;24.74;41.28;99750.19;10342673;28;20038;-59
2022/08/27 16:25:39;;;;;;;5.32;2.40;;;;;;;24.99;40.81;99756.91;10343767;28;20042;-59
2022/08/27 16:30:41;;;;;;;5.20;2.05;;;;;;;25.10;40.29;99761.78;10340524;28;20140;-59
2022/08/27 16:35:43;;;;;;;5.38;2.00;;;;;;;24.94;40.35;99756.63;10340779;28;20046;-59
2022/08/27 16:40:50;;;;;;;7.43;2.33;;;;;;;24.98;40.26;99757.91;10338665;28;20042;-59
2022/08/27 16:45:54;;;;;;;5.60;2.05;;;;;;;24.90;40.26;99755.34;10342488;28;20056;-59
2022/08/27 16:50:57;;;;;;;6.20;2.10;;;;;;;24.93;40.54;99752.31;10342994;28;20050;-59
2022/08/27 16:55:59;;;;;;;5.70;2.38;;;;;;;24.93;40.40;99757.66;10341086;28;20061;-59
2022/08/27 17:01:04;;;;;;;4.35;2.20;;;;;;;24.86;40.54;99759.41;10338449;28;21183;-59
2022/08/27 17:06:09;;;;;;;6.65;2.38;;;;;;;24.66;40.76;99763.66;10331125;28;20050;-59
2022/08/27 17:11:18;;;;;;;8.77;2.75;;;;;;;24.66;40.85;99769.81;10346774;28;20053;-59
2022/08/27 17:16:23;;;;;;;5.75;2.70;;;;;;;24.50;41.16;99782.56;10351398;28;20052;-59
2022/08/27 17:21:28;;;;;;;11.55;3.50;;;;;;;24.35;41.22;99784.41;10343883;28;20458;-59
2022/08/27 17:26:31;;;;;;;7.55;3.00;;;;;;;24.13;41.55;99778.94;10350835;28;20064;-59
2022/08/27 17:31:36;;;;;;;7.45;3.08;;;;;;;23.98;41.95;99780.72;10349942;28;20060;-60
2022/08/27 17:36:38;;;;;;;8.45;3.20;;;;;;;23.95;42.06;99788.25;10351866;28;20133;-59
2022/08/27 17:41:44;;;;;;;5.38;2.80;;;;;;;23.71;42.46;99789.31;10351965;28;20054;-59
2022/08/27 17:46:47;;;;;;;5.78;2.75;;;;;;;23.58;42.81;99785.56;10350967;28;20429;-59
2022/08/27 17:51:55;;;;;;;7.03;2.92;;;;;;;23.45;42.97;99791.50;10350037;28;20327;-59
2022/08/27 17:56:57;;;;;;;5.03;2.67;;;;;;;23.25;43.09;99800.91;10348881;28;20480;-59
2022/08/27 18:01:59;;;;;;;9.52;3.40;;;;;;;23.13;43.44;99800.50;10342568;28;20069;-59
2022/08/27 18:07:01;;;;;;;5.40;2.70;;;;;;;22.97;44.15;99813.06;10346793;28;20510;-59
2022/08/27 18:12:03;;;;;;;7.68;3.17;;;;;;;22.80;44.17;99816.81;10348469;28;20856;-59
2022/08/27 18:17:05;;;;;;;5.80;2.60;;;;;;;22.69;44.52;99818.84;10344433;28;20058;-59
2022/08/27 18:22:07;;;;;;;6.25;2.60;;;;;;;22.62;44.68;99820.50;10344412;28;20050;-59
2022/08/27 18:27:09;;;;;;;7.20;2.78;;;;;;;22.49;44.70;99830.03;10349411;28;20049;-59
2022/08/27 18:32:11;;;;;;;5.63;2.50;;;;;;;22.42;45.21;99834.38;10346961;28;20071;-59
2022/08/27 18:37:12;;;;;;;7.10;2.50;;;;;;;22.39;45.26;99837.41;10347952;28;20409;-60
2022/08/27 18:42:15;;;;;;;6.13;2.60;;;;;;;22.38;45.26;99849.88;10347445;28;20052;-60
2022/08/27 18:47:17;;;;;;;8.90;2.72;;;;;;;22.29;45.10;99853.53;10347763;28;20056;-60
2022/08/27 18:52:21;;;;;;;5.80;2.80;;;;;;;22.16;45.47;99849.72;10345382;28;20046;-60
2022/08/27 18:57:22;;;;;;;7.05;2.45;;;;;;;22.10;45.74;99853.91;10346765;28;20056;-60
2022/08/27 19:02:26;;;;;;;6.82;2.58;;;;;;;22.10;46.00;99859.22;10346176;28;20092;-60
2022/08/27 19:07:28;;;;;;;5.07;2.47;;;;;;;21.85;46.06;99868.16;10329602;28;20422;-59
2022/08/27 19:12:30;;;;;;;10.25;2.95;;;;;;;21.84;46.34;99879.84;10345625;28;20054;-60
2022/08/27 19:17:34;;;;;;;8.82;2.50;;;;;;;21.79;46.54;99882.13;10347163;28;20160;-60
2022/08/27 19:22:36;;;;;;;8.88;2.55;;;;;;;21.68;46.98;99885.94;10346843;28;20049;-60
2022/08/27 19:27:38;;;;;;;7.82;2.70;;;;;;;21.51;46.61;99889.59;10338035;28;20871;-60
2022/08/27 19:32:40;;;;;;;6.65;2.50;;;;;;;21.26;47.31;99892.28;10345570;28;20054;-60
2022/08/27 19:37:45;;;;;;;9.07;2.60;;;;;;;21.05;47.44;99901.50;10347216;28;20080;-60
2022/08/27 19:42:53;;;;;;;6.03;2.75;;;;;;;20.99;47.52;99904.78;10346179;28;20054;-60
2022/08/27 19:47:55;;;;;;;7.00;2.70;;;;;;;21.02;47.22;99904.50;10346006;28;20077;-60
2022/08/27 19:52:57;;;;;;;6.20;2.75;;;;;;;20.99;47.24;99909.28;10339876;28;20042;-60
2022/08/27 19:57:58;;;;;;;6.47;2.75;;;;;;;20.84;47.35;99910.88;10340411;28;20409;-60
2022/08/27 20:03:00;;;;;;;8.27;2.80;;;;;;;20.99;47.25;99910.13;10338948;28;20045;-60
2022/08/27 20:08:03;;;;;;;7.03;3.00;;;;;;;21.03;47.02;99914.13;10343130;28;20490;-60
2022/08/27 20:13:05;;;;;;;7.57;2.70;;;;;;;21.03;47.06;99915.94;10341616;28;20045;-60
2022/08/27 20:18:07;;;;;;;5.88;2.72;;;;;;;20.98;47.01;99913.78;10342010;28;20090;-60
2022/08/27 20:23:09;;;;;;;6.70;2.65;;;;;;;21.07;46.99;99915.47;10341658;28;20140;-60
2022/08/27 20:28:11;;;;;;;9.75;3.20;;;;;;;21.05;47.04;99922.78;10339699;28;20077;-60
2022/08/27 20:33:33;;;;;;;7.38;3.00;;;;;;;21.04;46.76;99929.09;10344010;28;20481;-60
2022/08/27 20:38:35;;;;;;;8.88;3.28;;;;;;;21.01;46.94;99926.75;10338097;28;20142;-60
2022/08/27 20:43:36;;;;;;;5.57;2.38;;;;;;;20.99;46.88;99935.84;10345265;28;20046;-60
2022/08/27 20:48:38;;;;;;;6.38;2.80;;;;;;;20.99;46.88;99933.19;10343992;28;20052;-60
2022/08/27 20:53:40;;;;;;;6.50;2.80;;;;;;;21.02;46.72;99939.06;10343017;28;20119;-60
2022/08/27 21:04:03;;;;;;;5.55;2.70;;;;;;;21.00;46.78;99945.53;10340438;28;20490;-60
2022/08/27 21:09:05;;;;;;;9.00;2.67;;;;;;;21.04;46.82;99944.22;10342506;28;20552;-60
2022/08/27 21:14:07;;;;;;;8.60;3.00;;;;;;;21.11;46.79;99950.53;10341341;28;20046;-60
2022/08/27 21:19:09;;;;;;;4.63;2.55;;;;;;;21.02;46.80;99948.84;10343876;28;20048;-60
2022/08/27 21:24:11;;;;;;;5.25;2.70;;;;;;;20.97;46.94;99956.44;10341950;28;20215;-60
2022/08/27 21:29:15;;;;;;;5.95;2.88;;;;;;;20.98;46.55;99956.31;10338828;28;20053;-60
2022/08/27 21:34:17;;;;;;;6.93;2.80;;;;;;;20.65;47.43;99951.78;10341170;28;20052;-60
2022/08/27 21:39:19;;;;;;;7.82;2.78;;;;;;;20.72;47.24;99952.81;10343146;28;20119;-60
2022/08/27 21:44:21;;;;;;;5.70;2.85;;;;;;;20.65;47.07;99951.78;10340674;28;20049;-60
2022/08/27 21:49:23;;;;;;;8.07;3.10;;;;;;;20.57;47.23;99949.03;10341011;28;21128;-60
2022/08/27 21:54:24;;;;;;;7.05;2.90;;;;;;;20.55;47.37;99953.66;10347633;28;20054;-60
2022/08/27 21:59:29;;;;;;;6.70;3.00;;;;;;;20.47;47.73;99953.59;10349750;28;20574;-60
2022/08/27 22:04:31;;;;;;;7.60;3.08;;;;;;;20.49;47.54;99950.78;10348630;28;20061;-60
2022/08/27 22:09:33;;;;;;;7.88;2.83;;;;;;;20.38;47.98;99945.72;10350418;28;20054;-60
2022/08/27 22:14:35;;;;;;;15.00;3.50;;;;;;;20.27;48.34;99944.13;10347765;28;20587;-60
2022/08/27 22:19:37;;;;;;;6.32;3.00;;;;;;;20.16;48.23;99937.22;10349059;28;20062;-60
2022/08/27 22:24:38;;;;;;;6.18;3.33;;;;;;;20.13;48.32;99942.03;10346500;28;20050;-60
2022/08/27 22:29:40;;;;;;;7.45;2.83;;;;;;;20.01;48.87;99943.22;10348499;28;20057;-60
2022/08/27 22:34:42;;;;;;;6.30;3.03;;;;;;;19.91;48.82;99942.47;10346501;28;20096;-60
2022/08/27 22:39:43;;;;;;;6.80;2.90;;;;;;;19.82;49.15;99936.25;10348795;28;20057;-60
2022/08/27 22:44:45;;;;;;;8.07;3.00;;;;;;;19.85;48.85;99937.72;10347492;28;20042;-60
2022/08/27 22:49:47;;;;;;;5.70;2.95;;;;;;;19.86;49.06;99936.75;10348625;28;20056;-60
2022/08/27 22:54:53;;;;;;;6.47;2.92;;;;;;;19.83;49.00;99934.41;10345601;28;20422;-60
2022/08/27 22:59:57;;;;;;;6.00;2.90;;;;;;;19.99;48.91;99935.41;10344377;28;20057;-60
2022/08/27 23:04:58;;;;;;;5.90;3.05;;;;;;;19.94;48.61;99936.84;10346852;28;20065;-60
2022/08/27 23:10:08;;;;;;;6.65;3.13;;;;;;;19.93;48.54;99930.69;10345031;28;20145;-60
2022/08/27 23:15:11;;;;;;;6.47;3.40;;;;;;;19.96;48.47;99930.41;10347134;28;20140;-60
2022/08/27 23:20:13;;;;;;;5.13;2.95;;;;;;;20.01;48.60;99935.28;10345151;28;20042;-60
2022/08/27 23:30:36;;;;;;;6.03;2.85;;;;;;;19.98;48.73;99925.78;10344834;28;20467;-60
2022/08/27 23:35:42;;;;;;;7.78;3.05;;;;;;;19.96;48.71;99927.75;10344029;28;20490;-59
2022/08/27 23:40:44;;;;;;;6.65;3.13;;;;;;;19.85;48.70;99921.81;10344404;28;20147;-60
2022/08/27 23:45:46;;;;;;;7.65;3.00;;;;;;;19.87;49.03;99918.03;10346312;28;20047;-60
2022/08/27 23:50:48;;;;;;;8.05;3.35;;;;;;;19.83;48.72;99921.13;10343681;28;20516;-60
2022/08/27 23:55:49;;;;;;;9.35;3.03;;;;;;;19.94;48.98;99920.91;10345290;28;20049;-60
